Time;durP1;ratioP1;P1;durP2;ratioP2;P2;SDS_P1;SDS_P2;PMS_P1;PMS_P2;Temp;Humidity;BMP_temperature;BMP_pressure;BME280_temperature;BME280_humidity;BME280_pressure;Samples;Min_cycle;Max_cycle;Signal;HPM_P1;HPM_P2
2021/09/20 00:01:09;;;;;;;;;;;13.30;99.90;;;;;;5053004;28;19919;-78
2021/09/20 00:03:35;;;;;;;;;;;13.40;99.90;;;;;;5063770;28;19913;-78
2021/09/20 00:06:00;;;;;;;;;;;13.30;99.90;;;;;;5053412;28;19913;-78
2021/09/20 00:08:26;;;;;;;;;;;13.40;99.90;;;;;;5043472;28;19913;-78
2021/09/20 00:10:52;;;;;;;;;;;13.30;99.90;;;;;;5060198;28;19917;-77
2021/09/20 00:13:18;;;;;;;;;;;13.30;99.90;;;;;;5038991;28;19916;-78
2021/09/20 00:15:43;;;;;;;;;;;13.30;99.90;;;;;;5056050;28;19913;-78
2021/09/20 00:18:09;;;;;;;;;;;13.30;99.90;;;;;;5058991;28;19921;-78
2021/09/20 00:20:34;;;;;;;;;;;13.40;99.90;;;;;;5063202;28;20007;-78
2021/09/20 00:23:00;;;;;;;;;;;13.40;99.90;;;;;;5038004;28;19959;-80
2021/09/20 00:25:26;;;;;;;;;;;13.30;99.90;;;;;;5049790;28;19913;-77
2021/09/20 00:27:52;;;;;;;;;;;13.30;99.90;;;;;;5055447;28;19952;-77
2021/09/20 00:30:18;;;;;;;;;;;13.40;99.90;;;;;;5038623;28;20003;-78
2021/09/20 00:32:44;;;;;;;;;;;13.40;99.90;;;;;;5056445;28;20284;-78
2021/09/20 00:35:09;;;;;;;;;;;13.40;99.90;;;;;;5056439;28;20324;-86
2021/09/20 00:37:35;;;;;;;;;;;13.30;99.90;;;;;;5057779;28;19913;-78
2021/09/20 00:40:01;;;;;;;;;;;13.30;99.90;;;;;;5056646;28;19987;-79
2021/09/20 00:42:27;;;;;;;;;;;13.30;99.90;;;;;;5054760;28;19920;-78
2021/09/20 00:44:52;;;;;;;;;;;13.30;99.90;;;;;;5055072;28;19913;-75
2021/09/20 00:47:18;;;;;;;;;;;13.30;99.90;;;;;;5063673;28;19916;-80
2021/09/20 00:49:43;;;;;;;;;;;13.30;99.90;;;;;;5054459;28;19915;-84
2021/09/20 00:52:09;;;;;;;;;;;13.20;99.90;;;;;;5055395;28;19915;-81
2021/09/20 00:54:34;;;;;;;;;;;13.20;99.90;;;;;;5056608;28;19959;-78
2021/09/20 00:57:01;;;;;;;;;;;13.10;99.90;;;;;;5054768;28;20339;-81
2021/09/20 00:59:27;;;;;;;;;;;13.10;99.90;;;;;;5054517;28;19987;-81
2021/09/20 01:01:53;;;;;;;;;;;13.10;99.90;;;;;;5056017;28;20026;-74
2021/09/20 01:04:19;;;;;;;;;;;13.00;99.90;;;;;;5038354;28;20050;-78
2021/09/20 01:06:44;;;;;;;;;;;13.00;99.90;;;;;;5055195;28;20335;-78
2021/09/20 01:09:10;;;;;;;;;;;12.90;99.90;;;;;;5056278;28;20216;-78
2021/09/20 01:11:36;;;;;;;;;;;12.90;99.90;;;;;;5037477;28;20015;-78
2021/09/20 01:14:02;;;;;;;;;;;12.90;99.90;;;;;;5054000;28;19917;-75
2021/09/20 01:16:27;;;;;;;;;;;12.80;99.90;;;;;;5043117;28;19917;-78
2021/09/20 01:18:53;;;;;;;;;;;12.80;99.90;;;;;;5055249;28;20357;-77
2021/09/20 01:21:18;;;;;;;;;;;12.80;99.90;;;;;;5037037;28;20254;-78
2021/09/20 01:23:44;;;;;;;;;;;12.80;99.90;;;;;;5054107;28;19921;-77
2021/09/20 01:26:10;;;;;;;;;;;12.80;99.90;;;;;;5042614;28;20470;-77
2021/09/20 01:28:36;;;;;;;;;;;12.80;99.90;;;;;;5055159;28;19913;-78
2021/09/20 01:31:02;;;;;;;;;;;12.80;99.90;;;;;;5056038;28;19913;-78
2021/09/20 01:33:27;;;;;;;;;;;12.70;99.90;;;;;;5055053;28;19917;-78
2021/09/20 01:35:53;;;;;;;;;;;12.70;99.90;;;;;;5054576;28;20270;-78
2021/09/20 01:38:19;;;;;;;;;;;12.70;99.90;;;;;;5037835;28;19967;-78
2021/09/20 01:40:46;;;;;;;;;;;12.70;99.90;;;;;;5055365;28;19909;-78
2021/09/20 01:43:12;;;;;;;;;;;12.70;99.90;;;;;;5055660;28;19921;-78
2021/09/20 01:45:38;;;;;;;;;;;12.70;99.90;;;;;;5053544;28;19955;-78
2021/09/20 01:48:03;;;;;;;;;;;12.70;99.90;;;;;;5055267;28;19949;-77
2021/09/20 01:50:29;;;;;;;;;;;12.70;99.90;;;;;;5055185;28;19913;-78
2021/09/20 01:52:55;;;;;;;;;;;12.60;99.90;;;;;;5055679;28;19909;-77
2021/09/20 01:55:20;;;;;;;;;;;12.60;99.90;;;;;;5052242;28;19948;-78
2021/09/20 01:57:46;;;;;;;;;;;12.50;99.90;;;;;;5054283;28;19923;-79
2021/09/20 02:00:13;;;;;;;;;;;12.50;99.90;;;;;;5037423;28;20270;-79
2021/09/20 02:02:39;;;;;;;;;;;12.40;99.90;;;;;;5053955;28;19962;-78
2021/09/20 02:05:05;;;;;;;;;;;12.40;99.90;;;;;;5055231;28;20312;-78
2021/09/20 02:07:31;;;;;;;;;;;12.40;99.90;;;;;;5064574;28;19956;-78
2021/09/20 02:09:57;;;;;;;;;;;12.30;99.90;;;;;;5054589;28;19956;-78
2021/09/20 02:12:22;;;;;;;;;;;12.30;99.90;;;;;;5040595;28;19924;-74
2021/09/20 02:14:48;;;;;;;;;;;12.30;99.90;;;;;;5053827;28;19913;-78
2021/09/20 02:17:13;;;;;;;;;;;12.20;99.90;;;;;;5038690;28;19917;-77
2021/09/20 02:19:40;;;;;;;;;;;12.20;99.90;;;;;;5054702;28;19917;-78
2021/09/20 02:22:08;;;;;;;;;;;12.20;99.90;;;;;;5064223;28;19916;-78
2021/09/20 02:24:34;;;;;;;;;;;12.20;99.90;;;;;;5050942;28;19917;-78
2021/09/20 02:26:59;;;;;;;;;;;12.20;99.90;;;;;;5034760;28;20311;-78
2021/09/20 02:29:25;;;;;;;;;;;12.10;99.90;;;;;;5056065;28;19913;-77
2021/09/20 02:31:50;;;;;;;;;;;12.20;99.90;;;;;;5054674;28;19912;-78
2021/09/20 02:34:17;;;;;;;;;;;12.20;99.90;;;;;;5035429;28;19916;-77
2021/09/20 02:36:43;;;;;;;;;;;12.20;99.90;;;;;;5036665;28;20307;-77
2021/09/20 02:39:09;;;;;;;;;;;12.20;99.90;;;;;;5053532;28;19917;-77
2021/09/20 02:41:34;;;;;;;;;;;12.20;99.90;;;;;;5054134;28;20270;-78
2021/09/20 02:44:00;;;;;;;;;;;12.20;99.90;;;;;;5050456;28;20007;-78
2021/09/20 02:46:26;;;;;;;;;;;12.20;99.90;;;;;;5040611;28;20287;-77
2021/09/20 02:48:51;;;;;;;;;;;12.20;99.90;;;;;;5054410;28;19924;-78
2021/09/20 02:51:17;;;;;;;;;;;12.30;99.90;;;;;;5053956;28;19976;-78
2021/09/20 02:53:42;;;;;;;;;;;12.30;99.90;;;;;;5035489;28;19916;-77
2021/09/20 02:56:08;;;;;;;;;;;12.20;99.90;;;;;;5054439;28;19917;-77
2021/09/20 02:58:33;;;;;;;;;;;12.30;99.90;;;;;;5054373;28;20266;-77
2021/09/20 03:00:59;;;;;;;;;;;12.20;99.90;;;;;;5034677;28;19913;-77
2021/09/20 03:03:25;;;;;;;;;;;12.20;99.90;;;;;;5053708;28;19939;-77
2021/09/20 03:05:50;;;;;;;;;;;12.20;99.90;;;;;;5053437;28;19920;-78
2021/09/20 03:08:16;;;;;;;;;;;12.20;99.90;;;;;;5048007;28;19915;-78
2021/09/20 03:10:41;;;;;;;;;;;12.20;99.90;;;;;;5050699;28;19967;-78
2021/09/20 03:13:07;;;;;;;;;;;12.20;99.90;;;;;;5051712;28;19914;-78
2021/09/20 03:15:33;;;;;;;;;;;12.30;99.90;;;;;;5052180;28;20517;-77
2021/09/20 03:17:58;;;;;;;;;;;12.30;99.90;;;;;;5055443;28;20227;-77
2021/09/20 03:20:24;;;;;;;;;;;12.30;99.90;;;;;;5046507;28;20648;-78
2021/09/20 03:22:49;;;;;;;;;;;12.30;99.90;;;;;;5051033;28;19920;-77
2021/09/20 03:25:15;;;;;;;;;;;12.30;99.90;;;;;;5075580;28;19925;-77
2021/09/20 03:27:41;;;;;;;;;;;12.20;99.90;;;;;;5065151;28;19919;-78
2021/09/20 03:30:07;;;;;;;;;;;12.20;99.90;;;;;;5068223;28;20009;-78
2021/09/20 03:32:32;;;;;;;;;;;12.20;99.90;;;;;;5068885;28;19917;-74
2021/09/20 03:34:58;;;;;;;;;;;12.20;99.90;;;;;;5063425;28;19925;-77
2021/09/20 03:37:24;;;;;;;;;;;12.20;99.90;;;;;;5072990;28;20008;-77
2021/09/20 03:39:49;;;;;;;;;;;12.20;99.90;;;;;;5072803;28;19969;-77
2021/09/20 03:42:15;;;;;;;;;;;12.20;99.90;;;;;;5073431;28;20330;-78
2021/09/20 03:44:40;;;;;;;;;;;12.20;99.90;;;;;;5076205;28;20223;-78
2021/09/20 03:47:06;;;;;;;;;;;12.20;99.90;;;;;;5073657;28;19912;-77
2021/09/20 03:49:31;;;;;;;;;;;12.20;99.90;;;;;;5077570;28;20288;-78
2021/09/20 03:51:57;;;;;;;;;;;12.30;99.90;;;;;;5081677;28;19927;-78
2021/09/20 03:54:23;;;;;;;;;;;12.20;99.90;;;;;;5075160;28;19923;-77
2021/09/20 03:56:48;;;;;;;;;;;12.20;99.90;;;;;;5075901;28;19939;-78
2021/09/20 03:59:14;;;;;;;;;;;12.20;99.90;;;;;;5077733;28;19937;-77
2021/09/20 04:01:39;;;;;;;;;;;12.20;99.90;;;;;;5081570;28;20288;-77
2021/09/20 04:04:05;;;;;;;;;;;12.20;99.90;;;;;;5085246;28;19919;-78
2021/09/20 04:06:31;;;;;;;;;;;12.20;99.90;;;;;;5078200;28;19958;-77
2021/09/20 04:09:00;;;;;;;;;;;12.20;99.90;;;;;;5083849;28;19917;-78
2021/09/20 04:11:26;;;;;;;;;;;12.20;99.90;;;;;;5083615;28;19916;-78
2021/09/20 04:13:51;;;;;;;;;;;12.20;99.90;;;;;;5081754;28;20478;-78
2021/09/20 04:16:17;;;;;;;;;;;12.20;99.90;;;;;;5085256;28;20037;-77
2021/09/20 04:18:43;;;;;;;;;;;12.20;99.90;;;;;;5086194;28;19960;-78
2021/09/20 04:21:09;;;;;;;;;;;12.20;99.90;;;;;;5102795;28;20211;-78
2021/09/20 04:23:34;;;;;;;;;;;12.20;99.90;;;;;;5084273;28;20306;-77
2021/09/20 04:26:00;;;;;;;;;;;12.20;99.90;;;;;;5082810;28;19961;-78
2021/09/20 04:28:25;;;;;;;;;;;12.20;99.90;;;;;;5084826;28;19916;-78
2021/09/20 04:30:51;;;;;;;;;;;12.20;99.90;;;;;;5085206;28;19920;-78
2021/09/20 04:33:18;;;;;;;;;;;12.10;99.90;;;;;;5085819;28;19913;-78
2021/09/20 04:35:44;;;;;;;;;;;12.20;99.90;;;;;;5114799;27;19918;-77
2021/09/20 04:38:10;;;;;;;;;;;12.10;99.90;;;;;;5083457;28;20207;-78
2021/09/20 04:40:36;;;;;;;;;;;12.20;99.90;;;;;;5078790;28;19916;-78
2021/09/20 04:43:02;;;;;;;;;;;12.20;99.90;;;;;;5085546;28;19924;-78
2021/09/20 04:45:28;;;;;;;;;;;12.20;99.90;;;;;;5086171;28;20242;-78
2021/09/20 04:47:53;;;;;;;;;;;12.20;99.90;;;;;;5085904;28;19919;-78
2021/09/20 04:50:19;;;;;;;;;;;12.20;99.90;;;;;;5085485;28;19965;-79
2021/09/20 04:52:45;;;;;;;;;;;12.20;99.90;;;;;;5081739;28;19912;-78
2021/09/20 04:55:10;;;;;;;;;;;12.20;99.90;;;;;;5084050;28;19916;-78
2021/09/20 04:57:36;;;;;;;;;;;12.20;99.90;;;;;;5084993;28;20379;-77
2021/09/20 05:00:03;;;;;;;;;;;12.20;99.90;;;;;;5082904;28;19963;-77
2021/09/20 05:02:29;;;;;;;;;;;12.20;99.90;;;;;;5077736;28;19920;-78
2021/09/20 05:04:54;;;;;;;;;;;12.10;99.90;;;;;;5075424;28;19913;-78
2021/09/20 05:07:20;;;;;;;;;;;12.10;99.90;;;;;;5074253;28;19919;-77
2021/09/20 05:09:45;;;;;;;;;;;12.00;99.90;;;;;;5109907;27;19995;-77
2021/09/20 05:12:11;;;;;;;;;;;12.00;99.90;;;;;;5074891;28;19916;-77
2021/09/20 05:14:36;;;;;;;;;;;12.00;99.90;;;;;;5074280;28;19939;-78
2021/09/20 05:17:04;;;;;;;;;;;11.90;99.90;;;;;;5074268;28;20077;-76
2021/09/20 05:19:29;;;;;;;;;;;11.90;99.90;;;;;;5073710;28;20304;-77
2021/09/20 05:21:55;;;;;;;;;;;11.80;99.90;;;;;;5074321;28;19912;-78
2021/09/20 05:24:20;;;;;;;;;;;11.80;99.90;;;;;;5089584;28;19917;-77
2021/09/20 05:26:46;;;;;;;;;;;11.80;99.90;;;;;;5070230;28;20585;-77
2021/09/20 05:29:11;;;;;;;;;;;11.80;99.90;;;;;;5075259;28;19946;-77
2021/09/20 05:31:37;;;;;;;;;;;11.80;99.90;;;;;;5076439;28;20345;-77
2021/09/20 05:34:03;;;;;;;;;;;11.80;99.90;;;;;;5082439;28;20001;-78
2021/09/20 05:36:28;;;;;;;;;;;11.80;99.90;;;;;;5075793;28;19916;-77
2021/09/20 05:38:54;;;;;;;;;;;11.80;99.90;;;;;;5075604;28;20004;-77
2021/09/20 05:41:19;;;;;;;;;;;11.80;99.90;;;;;;5079656;28;20261;-78
2021/09/20 05:43:45;;;;;;;;;;;11.70;99.90;;;;;;5070948;28;20261;-77
2021/09/20 05:46:10;;;;;;;;;;;11.80;99.90;;;;;;5076735;28;19947;-77
2021/09/20 05:48:36;;;;;;;;;;;11.80;99.90;;;;;;5076036;28;19941;-77
2021/09/20 05:51:02;;;;;;;;;;;11.80;99.90;;;;;;5078293;28;20643;-77
2021/09/20 05:53:27;;;;;;;;;;;11.80;99.90;;;;;;5075083;28;19920;-77
2021/09/20 05:55:53;;;;;;;;;;;11.80;99.90;;;;;;5076222;28;19996;-76
2021/09/20 05:58:18;;;;;;;;;;;11.80;99.90;;;;;;5077577;28;19919;-76
2021/09/20 06:00:44;;;;;;;;;;;11.80;99.90;;;;;;5074334;28;20007;-77
2021/09/20 06:03:10;;;;;;;;;;;11.80;99.90;;;;;;5088476;28;19912;-77
2021/09/20 06:05:38;;;;;;;;;;;11.90;99.90;;;;;;5074433;28;19913;-77
2021/09/20 06:08:05;;;;;;;;;;;11.80;99.90;;;;;;5106238;28;19920;-76
2021/09/20 06:10:30;;;;;;;;;;;11.80;99.90;;;;;;5073428;28;19913;-77
2021/09/20 06:12:56;;;;;;;;;;;11.80;99.90;;;;;;5086229;28;19908;-77
2021/09/20 06:15:21;;;;;;;;;;;11.70;99.90;;;;;;5075181;28;20195;-77
2021/09/20 06:17:47;;;;;;;;;;;11.70;99.90;;;;;;5073702;28;20307;-77
2021/09/20 06:20:13;;;;;;;;;;;11.80;99.90;;;;;;5064276;28;19916;-77
2021/09/20 06:22:39;;;;;;;;;;;11.90;99.90;;;;;;5077528;28;19973;-77
2021/09/20 06:25:05;;;;;;;;;;;11.90;99.90;;;;;;5073017;28;19916;-76
2021/09/20 06:27:30;;;;;;;;;;;12.00;99.90;;;;;;5074866;28;20016;-77
2021/09/20 06:29:56;;;;;;;;;;;12.10;99.90;;;;;;5073786;28;19995;-77
2021/09/20 06:32:22;;;;;;;;;;;12.10;99.90;;;;;;5074513;28;20348;-77
2021/09/20 06:34:47;;;;;;;;;;;12.20;99.90;;;;;;5073027;28;20196;-77
2021/09/20 06:37:13;;;;;;;;;;;12.20;99.90;;;;;;5086442;28;19962;-76
2021/09/20 06:39:39;;;;;;;;;;;12.30;99.90;;;;;;5067488;28;19939;-77
2021/09/20 06:42:06;;;;;;;;;;;12.30;99.90;;;;;;5077403;28;19916;-77
2021/09/20 06:44:34;;;;;;;;;;;12.30;99.90;;;;;;5073603;28;20252;-77
2021/09/20 06:46:59;;;;;;;;;;;12.40;99.90;;;;;;5104647;28;19970;-76
2021/09/20 06:49:25;;;;;;;;;;;12.40;99.90;;;;;;5076633;28;19912;-77
2021/09/20 06:51:51;;;;;;;;;;;12.50;99.90;;;;;;5073945;28;19920;-77
2021/09/20 06:54:20;;;;;;;;;;;12.50;99.90;;;;;;5074469;28;19950;-76
2021/09/20 06:56:46;;;;;;;;;;;12.60;99.90;;;;;;5074269;28;20200;-77
2021/09/20 06:59:12;;;;;;;;;;;12.70;99.90;;;;;;5077207;28;19962;-75
2021/09/20 07:01:38;;;;;;;;;;;13.00;99.90;;;;;;5069234;28;19966;-77
2021/09/20 07:04:04;;;;;;;;;;;13.30;99.90;;;;;;5080534;28;19920;-77
2021/09/20 07:06:29;;;;;;;;;;;13.60;99.90;;;;;;5073564;28;19917;-77
2021/09/20 07:08:55;;;;;;;;;;;13.90;99.90;;;;;;5069933;28;20296;-76
2021/09/20 07:11:20;;;;;;;;;;;14.00;99.90;;;;;;5067756;28;20246;-77
2021/09/20 07:13:46;;;;;;;;;;;13.90;99.90;;;;;;5083186;28;20203;-77
2021/09/20 07:16:11;;;;;;;;;;;13.80;99.90;;;;;;5072011;28;19917;-77
2021/09/20 07:18:37;;;;;;;;;;;13.80;99.90;;;;;;5074778;28;19965;-77
2021/09/20 07:21:03;;;;;;;;;;;13.80;99.90;;;;;;5077774;28;19917;-75
2021/09/20 07:23:28;;;;;;;;;;;13.90;99.90;;;;;;5076355;28;19921;-77
2021/09/20 07:25:54;;;;;;;;;;;14.00;99.90;;;;;;5077829;28;20046;-77
2021/09/20 07:28:20;;;;;;;;;;;14.10;99.90;;;;;;5077367;28;19920;-77
2021/09/20 07:30:45;;;;;;;;;;;14.20;99.90;;;;;;5071781;28;20136;-79
2021/09/20 07:33:11;;;;;;;;;;;14.40;99.90;;;;;;5065629;28;19920;-79
2021/09/20 07:35:36;;;;;;;;;;;14.40;99.90;;;;;;5069746;28;19912;-79
2021/09/20 07:38:03;;;;;;;;;;;14.60;99.90;;;;;;5069540;28;20003;-78
2021/09/20 07:40:28;;;;;;;;;;;14.70;99.90;;;;;;5068537;28;19912;-78
2021/09/20 07:42:54;;;;;;;;;;;15.10;99.90;;;;;;5081236;28;20311;-78
2021/09/20 07:45:20;;;;;;;;;;;15.60;99.90;;;;;;5080462;28;20474;-78
2021/09/20 07:47:46;;;;;;;;;;;16.00;99.90;;;;;;5078041;28;20066;-78
2021/09/20 07:50:14;;;;;;;;;;;16.20;99.90;;;;;;5080757;28;19912;-78
2021/09/20 07:52:40;;;;;;;;;;;16.30;99.90;;;;;;5083664;28;19913;-79
2021/09/20 07:55:06;;;;;;;;;;;16.10;99.90;;;;;;5076262;28;19916;-78
2021/09/20 07:57:32;;;;;;;;;;;15.90;99.90;;;;;;5071016;28;20362;-78
2021/09/20 08:00:00;;;;;;;;;;;15.90;99.90;;;;;;5077708;28;19916;-78
2021/09/20 08:02:26;;;;;;;;;;;15.70;99.90;;;;;;5079863;28;19921;-78
2021/09/20 08:04:51;;;;;;;;;;;15.70;99.90;;;;;;5083550;28;19927;-78
2021/09/20 08:07:18;;;;;;;;;;;15.70;99.90;;;;;;5085216;28;20520;-78
2021/09/20 08:09:45;;;;;;;;;;;15.80;99.90;;;;;;5085928;28;19912;-78
2021/09/20 08:12:11;;;;;;;;;;;15.80;99.90;;;;;;5084329;28;20297;-78
2021/09/20 08:14:37;;;;;;;;;;;16.00;99.90;;;;;;5081043;28;19999;-78
2021/09/20 08:17:03;;;;;;;;;;;16.20;99.90;;;;;;5078123;28;19931;-78
2021/09/20 08:19:29;;;;;;;;;;;16.50;99.90;;;;;;5077312;28;19913;-78
2021/09/20 08:21:55;;;;;;;;;;;16.90;99.90;;;;;;5080440;28;19973;-78
2021/09/20 08:24:24;;;;;;;;;;;17.10;99.90;;;;;;5075816;28;19920;-78
2021/09/20 08:26:49;;;;;;;;;;;17.00;99.90;;;;;;5077695;28;19913;-78
2021/09/20 08:29:18;;;;;;;;;;;16.70;99.90;;;;;;5081001;28;19920;-79
2021/09/20 08:31:49;;;;;;;;;;;16.50;99.90;;;;;;5080758;28;19974;-78
2021/09/20 08:34:18;;;;;;;;;;;16.30;99.90;;;;;;5080853;28;19912;-79
2021/09/20 08:36:43;;;;;;;;;;;16.30;99.90;;;;;;5080483;28;20300;-78
2021/09/20 08:39:09;;;;;;;;;;;16.20;99.90;;;;;;5085542;28;19919;-79
2021/09/20 08:41:36;;;;;;;;;;;16.10;99.90;;;;;;5083072;28;20315;-79
2021/09/20 08:44:04;;;;;;;;;;;16.00;99.90;;;;;;5085531;28;19923;-79
2021/09/20 08:46:30;;;;;;;;;;;15.90;99.90;;;;;;5084216;28;19923;-78
2021/09/20 08:48:58;;;;;;;;;;;15.90;99.90;;;;;;5086093;28;19911;-78
2021/09/20 08:51:23;;;;;;;;;;;16.00;99.90;;;;;;5086273;28;19919;-78
2021/09/20 08:53:50;;;;;;;;;;;15.90;99.90;;;;;;5080476;28;19913;-78
2021/09/20 08:56:15;;;;;;;;;;;16.00;99.90;;;;;;5083486;28;20015;-78
2021/09/20 08:58:41;;;;;;;;;;;16.00;99.90;;;;;;5083913;28;20008;-79
2021/09/20 09:01:08;;;;;;;;;;;15.90;99.90;;;;;;5084143;28;19963;-79
2021/09/20 09:03:33;;;;;;;;;;;16.00;99.90;;;;;;5080517;28;19927;-78
2021/09/20 09:05:59;;;;;;;;;;;16.00;99.90;;;;;;5083403;28;19920;-78
2021/09/20 09:08:33;;;;;;;;;;;16.10;99.90;;;;;;5080264;28;19977;-78
2021/09/20 09:11:04;;;;;;;;;;;16.20;99.90;;;;;;5080093;28;19999;-78
2021/09/20 09:13:48;;;;;;;;;;;16.30;99.90;;;;;;5081310;28;19923;-77
2021/09/20 09:16:17;;;;;;;;;;;16.30;99.90;;;;;;5082100;28;20039;-77
2021/09/20 09:19:14;;;;;;;;;;;16.30;99.90;;;;;;5075739;28;20224;-74
2021/09/20 09:21:41;;;;;;;;;;;16.40;99.90;;;;;;5012283;28;19924;-77
2021/09/20 09:24:10;;;;;;;;;;;16.40;99.90;;;;;;4995330;28;20192;-78
2021/09/20 09:26:36;;;;;;;;;;;16.40;99.90;;;;;;4993229;28;19944;-78
2021/09/20 09:29:08;;;;;;;;;;;16.40;99.90;;;;;;5016007;28;20255;-77
2021/09/20 09:31:35;;;;;;;;;;;16.50;99.90;;;;;;5001453;28;19923;-77
2021/09/20 09:34:12;;;;;;;;;;;16.60;99.90;;;;;;5012206;28;19936;-77
2021/09/20 09:36:41;;;;;;;;;;;16.80;99.90;;;;;;5011903;28;20340;-77
2021/09/20 09:39:07;;;;;;;;;;;16.90;99.90;;;;;;5011566;28;19914;-77
2021/09/20 09:41:34;;;;;;;;;;;17.10;99.90;;;;;;5015812;28;20263;-76
2021/09/20 09:44:07;;;;;;;;;;;17.00;99.90;;;;;;5020175;28;19914;-78
2021/09/20 09:46:45;;;;;;;;;;;16.90;99.90;;;;;;5019861;28;20256;-77
2021/09/20 09:49:15;;;;;;;;;;;16.80;99.90;;;;;;5021546;28;20339;-78
2021/09/20 09:51:59;;;;;;;;;;;16.80;99.90;;;;;;5022054;28;20349;-78
2021/09/20 09:54:26;;;;;;;;;;;16.80;99.90;;;;;;5020381;28;19968;-77
2021/09/20 09:57:09;;;;;;;;;;;16.80;99.90;;;;;;5019180;28;19920;-78
2021/09/20 09:59:35;;;;;;;;;;;16.70;99.90;;;;;;5079129;28;20002;-78
2021/09/20 10:02:13;;;;;;;;;;;16.70;99.90;;;;;;5095444;28;20007;-78
2021/09/20 10:04:48;;;;;;;;;;;16.80;99.90;;;;;;5076920;28;20007;-78
2021/09/20 10:07:20;;;;;;;;;;;16.90;99.90;;;;;;5082086;28;19923;-78
2021/09/20 10:09:46;;;;;;;;;;;17.00;99.90;;;;;;5080395;28;19927;-78
2021/09/20 10:12:11;;;;;;;;;;;17.10;99.90;;;;;;5082886;28;20307;-79
2021/09/20 10:14:38;;;;;;;;;;;17.10;99.90;;;;;;5083024;28;20208;-78
2021/09/20 10:17:04;;;;;;;;;;;17.10;99.90;;;;;;5081946;28;19919;-78
2021/09/20 10:19:30;;;;;;;;;;;17.10;99.90;;;;;;5097538;28;19912;-79
2021/09/20 10:21:56;;;;;;;;;;;17.10;99.90;;;;;;5082071;28;19924;-79
2021/09/20 10:24:23;;;;;;;;;;;17.20;99.90;;;;;;5077836;28;19964;-78
2021/09/20 10:26:49;;;;;;;;;;;17.30;99.90;;;;;;5088703;28;19913;-79
2021/09/20 10:29:16;;;;;;;;;;;17.20;99.90;;;;;;5069765;28;19970;-78
2021/09/20 10:31:43;;;;;;;;;;;17.20;99.90;;;;;;5074091;28;19912;-78
2021/09/20 10:34:17;;;;;;;;;;;17.10;99.90;;;;;;5079867;28;20191;-79
2021/09/20 10:36:51;;;;;;;;;;;17.00;99.90;;;;;;5071415;28;20375;-77
2021/09/20 10:39:17;;;;;;;;;;;16.90;99.90;;;;;;5060687;28;20034;-77
2021/09/20 10:41:42;;;;;;;;;;;16.70;99.90;;;;;;5068294;28;19913;-77
2021/09/20 10:44:09;;;;;;;;;;;16.70;99.90;;;;;;5074294;28;20178;-77
2021/09/20 10:46:37;;;;;;;;;;;16.70;99.90;;;;;;5077590;28;20007;-77
2021/09/20 10:49:04;;;;;;;;;;;16.70;99.90;;;;;;5060922;28;19921;-76
2021/09/20 10:51:37;;;;;;;;;;;16.90;99.90;;;;;;5064539;28;19913;-79
2021/09/20 10:54:16;;;;;;;;;;;17.00;99.90;;;;;;5085018;28;19920;-79
2021/09/20 10:56:42;;;;;;;;;;;17.20;99.90;;;;;;5078352;28;19920;-77
2021/09/20 10:59:08;;;;;;;;;;;17.10;99.90;;;;;;5077156;28;19922;-78
2021/09/20 11:01:35;;;;;;;;;;;16.90;99.90;;;;;;5092883;28;19916;-78
2021/09/20 11:04:02;;;;;;;;;;;16.80;99.90;;;;;;5073306;28;19916;-78
2021/09/20 11:06:27;;;;;;;;;;;16.70;99.90;;;;;;5075019;28;19927;-78
2021/09/20 11:09:01;;;;;;;;;;;16.60;99.90;;;;;;5078096;28;19916;-78
2021/09/20 11:11:33;;;;;;;;;;;16.70;99.90;;;;;;5078486;28;20374;-79
2021/09/20 11:14:02;;;;;;;;;;;16.90;99.90;;;;;;5074865;28;20666;-79
2021/09/20 11:16:46;;;;;;;;;;;16.80;99.90;;;;;;5079764;28;20411;-79
2021/09/20 11:19:24;;;;;;;;;;;16.80;99.90;;;;;;5076838;28;19947;-78
2021/09/20 11:22:14;;;;;;;;;;;16.80;99.90;;;;;;5076089;28;19923;-78
2021/09/20 11:24:44;;;;;;;;;;;16.70;99.90;;;;;;5073788;28;19942;-79
2021/09/20 11:27:22;;;;;;;;;;;16.60;99.90;;;;;;5074894;28;19959;-78
2021/09/20 11:29:52;;;;;;;;;;;16.50;99.90;;;;;;5069367;28;19917;-79
2021/09/20 11:32:18;;;;;;;;;;;16.40;99.90;;;;;;5067178;28;19942;-79
2021/09/20 11:34:50;;;;;;;;;;;16.30;99.90;;;;;;5064712;28;19916;-77
2021/09/20 11:37:19;;;;;;;;;;;16.30;99.90;;;;;;5058203;28;19909;-78
2021/09/20 11:40:02;;;;;;;;;;;16.30;99.90;;;;;;5069389;28;20245;-77
2021/09/20 11:42:37;;;;;;;;;;;16.30;99.90;;;;;;5069751;28;19916;-79
2021/09/20 11:45:04;;;;;;;;;;;16.30;99.90;;;;;;5082542;28;20211;-77
2021/09/20 11:47:34;;;;;;;;;;;16.30;99.90;;;;;;5071451;28;19913;-78
2021/09/20 11:50:12;;;;;;;;;;;16.30;99.90;;;;;;5077357;28;19923;-79
2021/09/20 11:52:38;;;;;;;;;;;16.40;99.90;;;;;;5080592;28;19916;-79
2021/09/20 11:55:10;;;;;;;;;;;16.40;99.90;;;;;;5070896;28;20319;-79
2021/09/20 11:57:36;;;;;;;;;;;16.60;99.90;;;;;;5098786;28;19919;-78
2021/09/20 12:00:04;;;;;;;;;;;16.70;99.90;;;;;;5085828;28;19909;-78
2021/09/20 12:02:35;;;;;;;;;;;16.70;99.90;;;;;;5068736;28;20000;-78
2021/09/20 12:05:01;;;;;;;;;;;16.80;99.90;;;;;;5075150;28;19920;-78
2021/09/20 12:07:31;;;;;;;;;;;16.80;99.90;;;;;;5070794;28;19948;-78
2021/09/20 12:09:57;;;;;;;;;;;16.70;99.90;;;;;;5075728;28;19920;-78
2021/09/20 12:12:31;;;;;;;;;;;16.60;99.90;;;;;;5076339;28;20303;-78
2021/09/20 12:14:58;;;;;;;;;;;16.60;99.90;;;;;;5061870;28;19958;-79
2021/09/20 12:17:23;;;;;;;;;;;16.50;99.90;;;;;;5077016;28;19952;-77
2021/09/20 12:19:53;;;;;;;;;;;16.50;99.90;;;;;;5090763;28;19963;-79
2021/09/20 12:22:18;;;;;;;;;;;16.50;99.90;;;;;;5076200;28;19921;-78
2021/09/20 12:24:44;;;;;;;;;;;16.40;99.90;;;;;;5076912;28;20007;-78
2021/09/20 12:27:10;;;;;;;;;;;16.40;99.90;;;;;;5077307;28;20321;-78
2021/09/20 12:29:36;;;;;;;;;;;16.50;99.90;;;;;;5081258;28;19912;-78
2021/09/20 12:32:02;;;;;;;;;;;16.50;99.90;;;;;;5062576;28;19928;-78
2021/09/20 12:34:32;;;;;;;;;;;16.40;99.90;;;;;;5059639;28;20193;-76
2021/09/20 12:37:01;;;;;;;;;;;16.50;99.90;;;;;;5069086;28;19917;-78
2021/09/20 12:39:28;;;;;;;;;;;16.50;99.90;;;;;;5070073;28;19909;-79
2021/09/20 12:41:55;;;;;;;;;;;16.50;99.90;;;;;;5075876;28;19923;-78
2021/09/20 12:44:37;;;;;;;;;;;16.60;99.90;;;;;;5076297;28;19931;-75
2021/09/20 12:47:16;;;;;;;;;;;16.70;99.90;;;;;;5076860;28;20312;-79
2021/09/20 12:49:42;;;;;;;;;;;16.70;99.90;;;;;;5073598;28;20007;-76
2021/09/20 12:52:25;;;;;;;;;;;16.70;99.90;;;;;;5073640;28;19916;-78
2021/09/20 12:54:51;;;;;;;;;;;16.60;99.90;;;;;;5076064;28;19922;-78
2021/09/20 12:57:18;;;;;;;;;;;16.60;99.90;;;;;;5073910;28;20014;-79
2021/09/20 12:59:44;;;;;;;;;;;16.50;99.90;;;;;;5084936;28;19908;-78
2021/09/20 13:02:14;;;;;;;;;;;16.50;99.90;;;;;;5084758;28;19912;-78
2021/09/20 13:04:41;;;;;;;;;;;16.50;99.90;;;;;;5064606;28;20185;-79
2021/09/20 13:07:10;;;;;;;;;;;16.50;99.90;;;;;;5069611;28;19913;-78
2021/09/20 13:09:37;;;;;;;;;;;16.60;99.90;;;;;;5087801;28;19909;-79
2021/09/20 13:12:04;;;;;;;;;;;16.50;99.90;;;;;;5074378;28;20003;-78
2021/09/20 13:14:30;;;;;;;;;;;16.40;99.90;;;;;;5120392;27;19916;-79
2021/09/20 13:17:04;;;;;;;;;;;16.30;99.90;;;;;;5071191;28;19916;-78
2021/09/20 13:19:29;;;;;;;;;;;16.30;99.90;;;;;;5067554;28;19915;-79
2021/09/20 13:22:03;;;;;;;;;;;16.40;99.90;;;;;;5074969;28;19912;-78
2021/09/20 13:24:30;;;;;;;;;;;16.50;99.90;;;;;;5067633;28;19920;-78
2021/09/20 13:26:55;;;;;;;;;;;16.50;99.90;;;;;;5073928;28;19924;-78
2021/09/20 13:29:21;;;;;;;;;;;16.60;99.90;;;;;;5075459;28;19909;-79
2021/09/20 13:31:47;;;;;;;;;;;16.60;99.90;;;;;;5071214;28;20311;-78
2021/09/20 13:34:12;;;;;;;;;;;16.70;99.90;;;;;;5077944;28;19959;-77
2021/09/20 13:36:38;;;;;;;;;;;16.80;99.90;;;;;;5064520;28;19920;-78
2021/09/20 13:39:03;;;;;;;;;;;16.90;99.90;;;;;;5072258;28;19912;-79
2021/09/20 13:41:29;;;;;;;;;;;17.00;99.90;;;;;;5075774;28;19966;-78
2021/09/20 13:43:55;;;;;;;;;;;17.10;99.90;;;;;;5068935;28;19924;-77
2021/09/20 13:46:22;;;;;;;;;;;17.00;99.90;;;;;;5074213;28;19952;-78
2021/09/20 13:48:48;;;;;;;;;;;16.90;99.90;;;;;;5079080;28;19913;-77
2021/09/20 13:51:14;;;;;;;;;;;16.90;99.90;;;;;;5071322;28;19912;-79
2021/09/20 13:53:40;;;;;;;;;;;16.80;99.90;;;;;;5069561;28;19958;-78
2021/09/20 13:56:06;;;;;;;;;;;16.70;99.90;;;;;;5074221;28;19912;-78
2021/09/20 13:58:31;;;;;;;;;;;16.70;99.90;;;;;;5073678;28;19912;-78
2021/09/20 14:00:57;;;;;;;;;;;16.80;99.90;;;;;;5075168;28;19916;-78
2021/09/20 14:03:23;;;;;;;;;;;16.80;99.90;;;;;;5090358;28;19920;-78
2021/09/20 14:05:50;;;;;;;;;;;16.80;99.90;;;;;;5075278;28;20219;-78
2021/09/20 14:08:19;;;;;;;;;;;16.70;99.90;;;;;;5074476;28;19916;-79
2021/09/20 14:10:45;;;;;;;;;;;16.70;99.90;;;;;;5074084;28;19970;-77
2021/09/20 14:13:11;;;;;;;;;;;16.70;99.90;;;;;;5072158;28;19916;-79
2021/09/20 14:15:36;;;;;;;;;;;16.60;99.90;;;;;;5075143;28;19908;-78